Memorial Village's Hourly Summary for Tuesday, May 15, 2018
Hour Temp
(f)
RH
(%)
Solar Rad.
(MJ/m2)
Rainfall
(in)
Wind
(mph)
5/15/2018 12:00 AM 74 82 0 0 0.19
5/15/2018 1:00 AM 73 87 0 0 0
5/15/2018 2:00 AM 71 92 0 0 0
5/15/2018 3:00 AM 70 94 0 0 0
5/15/2018 4:00 AM 69 96 0 0 0
5/15/2018 5:00 AM 68 96 0 0 0
5/15/2018 6:00 AM 67 97 0.02 0 0
5/15/2018 7:00 AM 70 90 0.31 0 0.02
5/15/2018 8:00 AM 76 76 0.72 0 0.47
5/15/2018 9:00 AM 80 61 0.94 0 0.75
5/15/2018 10:00 AM 81 57 1.37 0 0.51
5/15/2018 11:00 AM 84 47 2.99 0 1.25
5/15/2018 12:00 PM 88 34 3.38 0 1.09
5/15/2018 1:00 PM 90 29 3.42 0 1.68
5/15/2018 2:00 PM 92 29 3.22 0 1.74
5/15/2018 3:00 PM 92 31 2.82 0 1.88
5/15/2018 4:00 PM 92 34 2.13 0 1.55
5/15/2018 5:00 PM 90 36 1.09 0 2.14
5/15/2018 6:00 PM 89 37 0.8 0 1.72
5/15/2018 7:00 PM 86 39 0.13 0 2.03
5/15/2018 8:00 PM 84 45 0 0 1.44
5/15/2018 9:00 PM 81 51 0 0 0.54
5/15/2018 10:00 PM 79 58 0 0 0.97
5/15/2018 11:00 PM 77 65 0 0 0.17
Data Summary 80 60 23.34 0.00 0.84